sensor_id;sensor_type;location;lat;lon;timestamp;pressure;altitude;pressure_sealevel;temperature;humidity
22333;BME280;11334;36.986;-121.936;2022-08-01T00:01:07;101084.53;;;32.37;36.39
22333;BME280;11334;36.986;-121.936;2022-08-01T00:03:33;101090.06;;;32.32;36.77
22333;BME280;11334;36.986;-121.936;2022-08-01T00:05:59;101089.75;;;32.38;37.09
22333;BME280;11334;36.986;-121.936;2022-08-01T00:08:25;101081.94;;;32.17;36.96
22333;BME280;11334;36.986;-121.936;2022-08-01T00:10:52;101081.19;;;32.12;36.31
22333;BME280;11334;36.986;-121.936;2022-08-01T00:13:18;101086.69;;;32.12;36.21
22333;BME280;11334;36.986;-121.936;2022-08-01T00:15:44;101080.25;;;31.98;36.11
22333;BME280;11334;36.986;-121.936;2022-08-01T00:18:10;101093.16;;;31.92;36.64
22333;BME280;11334;36.986;-121.936;2022-08-01T00:20:37;101086.00;;;31.96;37.51
22333;BME280;11334;36.986;-121.936;2022-08-01T00:23:03;101080.25;;;31.98;38.04
22333;BME280;11334;36.986;-121.936;2022-08-01T00:25:30;101084.19;;;32.15;36.40
22333;BME280;11334;36.986;-121.936;2022-08-01T00:27:56;101083.03;;;32.49;36.55
22333;BME280;11334;36.986;-121.936;2022-08-01T00:30:23;101083.31;;;32.71;36.02
22333;BME280;11334;36.986;-121.936;2022-08-01T00:32:49;101080.28;;;32.77;35.64
22333;BME280;11334;36.986;-121.936;2022-08-01T00:35:15;101080.69;;;32.61;35.97
22333;BME280;11334;36.986;-121.936;2022-08-01T00:37:42;101085.28;;;32.47;35.97
22333;BME280;11334;36.986;-121.936;2022-08-01T00:40:09;101084.16;;;32.48;35.18
22333;BME280;11334;36.986;-121.936;2022-08-01T00:42:36;101086.19;;;32.38;35.95
22333;BME280;11334;36.986;-121.936;2022-08-01T00:45:02;101087.69;;;32.20;36.47
22333;BME280;11334;36.986;-121.936;2022-08-01T00:47:28;101073.06;;;32.02;36.16
22333;BME280;11334;36.986;-121.936;2022-08-01T00:49:55;101082.50;;;31.91;36.81
22333;BME280;11334;36.986;-121.936;2022-08-01T00:52:21;101080.78;;;31.57;37.96
22333;BME280;11334;36.986;-121.936;2022-08-01T00:54:48;101084.47;;;31.38;38.39
22333;BME280;11334;36.986;-121.936;2022-08-01T00:57:14;101078.28;;;31.17;38.93
22333;BME280;11334;36.986;-121.936;2022-08-01T00:59:41;101072.94;;;30.88;39.74
22333;BME280;11334;36.986;-121.936;2022-08-01T01:02:07;101071.13;;;30.49;39.91
22333;BME280;11334;36.986;-121.936;2022-08-01T01:04:33;101076.09;;;30.37;40.36
22333;BME280;11334;36.986;-121.936;2022-08-01T01:15:47;101074.34;;;29.23;42.54
22333;BME280;11334;36.986;-121.936;2022-08-01T01:18:20;101071.56;;;28.98;43.11
22333;BME280;11334;36.986;-121.936;2022-08-01T01:21:54;101070.88;;;28.67;43.72
22333;BME280;11334;36.986;-121.936;2022-08-01T01:27:16;101069.16;;;28.15;44.57
22333;BME280;11334;36.986;-121.936;2022-08-01T01:29:49;101064.84;;;27.88;45.41
22333;BME280;11334;36.986;-121.936;2022-08-01T01:32:33;101069.09;;;27.79;45.65
22333;BME280;11334;36.986;-121.936;2022-08-01T01:35:22;101074.19;;;27.66;46.23
22333;BME280;11334;36.986;-121.936;2022-08-01T01:37:56;101069.13;;;27.48;45.91
22333;BME280;11334;36.986;-121.936;2022-08-01T01:40:24;101068.66;;;27.35;46.37
22333;BME280;11334;36.986;-121.936;2022-08-01T01:42:53;101072.38;;;27.24;46.30
22333;BME280;11334;36.986;-121.936;2022-08-01T01:45:23;101069.44;;;27.04;47.08
22333;BME280;11334;36.986;-121.936;2022-08-01T01:47:51;101060.00;;;26.91;47.23
22333;BME280;11334;36.986;-121.936;2022-08-01T01:50:20;101070.13;;;26.74;47.74
22333;BME280;11334;36.986;-121.936;2022-08-01T01:52:48;101068.97;;;26.70;48.18
22333;BME280;11334;36.986;-121.936;2022-08-01T01:55:16;101087.28;;;26.58;47.95
22333;BME280;11334;36.986;-121.936;2022-08-01T01:57:45;101079.69;;;26.39;48.63
22333;BME280;11334;36.986;-121.936;2022-08-01T02:00:12;101084.22;;;26.34;48.67
22333;BME280;11334;36.986;-121.936;2022-08-01T02:02:41;101084.50;;;26.16;49.53
22333;BME280;11334;36.986;-121.936;2022-08-01T02:05:10;101095.03;;;26.12;49.45
22333;BME280;11334;36.986;-121.936;2022-08-01T02:07:37;101091.88;;;26.04;49.69
22333;BME280;11334;36.986;-121.936;2022-08-01T02:10:05;101093.63;;;25.94;49.92
22333;BME280;11334;36.986;-121.936;2022-08-01T02:12:36;101095.13;;;25.85;50.13
22333;BME280;11334;36.986;-121.936;2022-08-01T02:15:05;101096.41;;;25.66;50.64
22333;BME280;11334;36.986;-121.936;2022-08-01T02:17:31;101093.47;;;25.68;49.97
22333;BME280;11334;36.986;-121.936;2022-08-01T02:20:00;101100.34;;;25.59;51.14
22333;BME280;11334;36.986;-121.936;2022-08-01T02:22:32;101100.13;;;25.49;51.19
22333;BME280;11334;36.986;-121.936;2022-08-01T02:25:27;101092.38;;;25.41;51.54
22333;BME280;11334;36.986;-121.936;2022-08-01T02:28:12;101096.47;;;25.27;52.09
22333;BME280;11334;36.986;-121.936;2022-08-01T02:30:42;101095.13;;;25.13;51.88
22333;BME280;11334;36.986;-121.936;2022-08-01T02:33:22;101090.41;;;25.09;52.53
22333;BME280;11334;36.986;-121.936;2022-08-01T02:35:52;101088.09;;;24.90;52.62
22333;BME280;11334;36.986;-121.936;2022-08-01T02:38:23;101093.78;;;24.77;53.39
22333;BME280;11334;36.986;-121.936;2022-08-01T02:40:52;101093.69;;;24.61;53.76
22333;BME280;11334;36.986;-121.936;2022-08-01T02:43:25;101088.41;;;24.54;53.89
22333;BME280;11334;36.986;-121.936;2022-08-01T02:45:55;101096.44;;;24.38;53.73
22333;BME280;11334;36.986;-121.936;2022-08-01T02:48:25;101084.91;;;24.20;54.84
22333;BME280;11334;36.986;-121.936;2022-08-01T02:50:55;101093.13;;;24.02;55.14
22333;BME280;11334;36.986;-121.936;2022-08-01T02:53:24;101093.22;;;23.96;54.74
22333;BME280;11334;36.986;-121.936;2022-08-01T02:55:52;101100.88;;;23.87;55.46
22333;BME280;11334;36.986;-121.936;2022-08-01T02:58:20;101098.38;;;23.75;55.91
22333;BME280;11334;36.986;-121.936;2022-08-01T03:00:49;101097.06;;;23.66;56.44
22333;BME280;11334;36.986;-121.936;2022-08-01T03:03:17;101100.56;;;23.55;56.54
22333;BME280;11334;36.986;-121.936;2022-08-01T03:05:44;101106.03;;;23.48;56.55
22333;BME280;11334;36.986;-121.936;2022-08-01T03:08:12;101099.88;;;23.42;57.11
22333;BME280;11334;36.986;-121.936;2022-08-01T03:10:42;101106.69;;;23.33;57.02
22333;BME280;11334;36.986;-121.936;2022-08-01T03:13:11;101101.38;;;23.26;57.69
22333;BME280;11334;36.986;-121.936;2022-08-01T03:15:40;101102.28;;;23.20;57.71
22333;BME280;11334;36.986;-121.936;2022-08-01T03:18:09;101107.78;;;23.14;57.86
22333;BME280;11334;36.986;-121.936;2022-08-01T03:20:37;101110.81;;;23.06;57.95
22333;BME280;11334;36.986;-121.936;2022-08-01T03:23:06;101110.53;;;22.96;58.64
22333;BME280;11334;36.986;-121.936;2022-08-01T03:25:35;101102.34;;;22.85;59.05
22333;BME280;11334;36.986;-121.936;2022-08-01T03:28:04;101103.63;;;22.83;59.18
22333;BME280;11334;36.986;-121.936;2022-08-01T03:30:32;101115.97;;;22.72;59.30
22333;BME280;11334;36.986;-121.936;2022-08-01T03:33:00;101115.16;;;22.54;59.64
22333;BME280;11334;36.986;-121.936;2022-08-01T03:35:38;101126.03;;;22.48;59.79
22333;BME280;11334;36.986;-121.936;2022-08-01T03:38:08;101126.94;;;22.42;60.10
22333;BME280;11334;36.986;-121.936;2022-08-01T03:40:41;101130.91;;;22.39;60.34
22333;BME280;11334;36.986;-121.936;2022-08-01T03:43:11;101140.31;;;22.30;60.75
22333;BME280;11334;36.986;-121.936;2022-08-01T03:45:46;101142.81;;;22.32;60.58
22333;BME280;11334;36.986;-121.936;2022-08-01T03:48:17;101154.31;;;22.21;61.01
22333;BME280;11334;36.986;-121.936;2022-08-01T03:50:46;101157.72;;;22.17;61.23
22333;BME280;11334;36.986;-121.936;2022-08-01T03:53:14;101161.50;;;22.09;61.44
22333;BME280;11334;36.986;-121.936;2022-08-01T03:55:43;101157.34;;;22.07;61.61
22333;BME280;11334;36.986;-121.936;2022-08-01T03:58:10;101150.13;;;22.01;61.84
22333;BME280;11334;36.986;-121.936;2022-08-01T04:00:38;101146.44;;;21.95;62.00
22333;BME280;11334;36.986;-121.936;2022-08-01T04:03:08;101142.28;;;21.93;61.74
22333;BME280;11334;36.986;-121.936;2022-08-01T04:05:35;101153.81;;;21.82;62.45
22333;BME280;11334;36.986;-121.936;2022-08-01T04:08:01;101165.25;;;21.78;62.92
22333;BME280;11334;36.986;-121.936;2022-08-01T04:10:28;101167.34;;;21.76;62.74
22333;BME280;11334;36.986;-121.936;2022-08-01T04:12:55;101162.22;;;21.68;62.95
22333;BME280;11334;36.986;-121.936;2022-08-01T04:15:21;101165.75;;;21.62;62.88
22333;BME280;11334;36.986;-121.936;2022-08-01T04:17:48;101170.13;;;21.63;62.97
22333;BME280;11334;36.986;-121.936;2022-08-01T04:20:14;101176.19;;;21.52;63.36
22333;BME280;11334;36.986;-121.936;2022-08-01T04:22:41;101173.94;;;21.49;63.44
22333;BME280;11334;36.986;-121.936;2022-08-01T04:25:29;101181.41;;;21.47;63.55
22333;BME280;11334;36.986;-121.936;2022-08-01T04:27:58;101182.06;;;21.43;63.66
22333;BME280;11334;36.986;-121.936;2022-08-01T04:30:28;101169.22;;;21.38;63.82
22333;BME280;11334;36.986;-121.936;2022-08-01T04:33:00;101175.25;;;21.40;64.18
22333;BME280;11334;36.986;-121.936;2022-08-01T04:35:28;101172.38;;;21.35;64.04
22333;BME280;11334;36.986;-121.936;2022-08-01T04:37:55;101176.94;;;21.28;64.32
22333;BME280;11334;36.986;-121.936;2022-08-01T04:40:23;101175.66;;;21.31;64.38
22333;BME280;11334;36.986;-121.936;2022-08-01T04:42:51;101171.09;;;21.31;64.18
22333;BME280;11334;36.986;-121.936;2022-08-01T04:45:18;101174.22;;;21.28;64.31
22333;BME280;11334;36.986;-121.936;2022-08-01T04:47:45;101171.16;;;21.25;64.42
22333;BME280;11334;36.986;-121.936;2022-08-01T04:50:13;101183.81;;;21.18;64.69
22333;BME280;11334;36.986;-121.936;2022-08-01T04:52:39;101195.44;;;21.19;64.81
22333;BME280;11334;36.986;-121.936;2022-08-01T04:55:08;101206.00;;;21.20;64.94
22333;BME280;11334;36.986;-121.936;2022-08-01T04:57:38;101203.94;;;21.16;64.98
22333;BME280;11334;36.986;-121.936;2022-08-01T05:00:06;101205.19;;;21.13;65.18
22333;BME280;11334;36.986;-121.936;2022-08-01T05:02:32;101210.34;;;21.15;65.05
22333;BME280;11334;36.986;-121.936;2022-08-01T05:04:59;101219.75;;;21.06;65.21
22333;BME280;11334;36.986;-121.936;2022-08-01T05:07:25;101217.47;;;21.03;65.45
22333;BME280;11334;36.986;-121.936;2022-08-01T05:09:51;101209.78;;;21.00;65.52
22333;BME280;11334;36.986;-121.936;2022-08-01T05:12:17;101213.09;;;21.02;65.38
22333;BME280;11334;36.986;-121.936;2022-08-01T05:14:44;101206.47;;;21.04;65.36
22333;BME280;11334;36.986;-121.936;2022-08-01T05:17:11;101206.91;;;21.01;65.55
22333;BME280;11334;36.986;-121.936;2022-08-01T05:19:38;101199.63;;;21.02;65.54
22333;BME280;11334;36.986;-121.936;2022-08-01T05:22:07;101210.84;;;20.92;65.80
22333;BME280;11334;36.986;-121.936;2022-08-01T05:24:34;101210.84;;;20.92;65.81
22333;BME280;11334;36.986;-121.936;2022-08-01T05:27:01;101200.50;;;20.90;66.02
22333;BME280;11334;36.986;-121.936;2022-08-01T05:29:27;101216.28;;;20.86;66.07
22333;BME280;11334;36.986;-121.936;2022-08-01T05:31:53;101207.75;;;20.89;65.94
22333;BME280;11334;36.986;-121.936;2022-08-01T05:34:20;101211.91;;;20.85;66.29
22333;BME280;11334;36.986;-121.936;2022-08-01T05:36:47;101203.44;;;20.82;66.30
22333;BME280;11334;36.986;-121.936;2022-08-01T05:39:14;101206.13;;;20.82;66.28
22333;BME280;11334;36.986;-121.936;2022-08-01T05:41:41;101214.81;;;20.77;65.83
22333;BME280;11334;36.986;-121.936;2022-08-01T05:44:07;101221.06;;;20.71;66.88
22333;BME280;11334;36.986;-121.936;2022-08-01T05:46:34;101231.03;;;20.71;66.87
22333;BME280;11334;36.986;-121.936;2022-08-01T05:49:02;101231.41;;;20.68;67.02
22333;BME280;11334;36.986;-121.936;2022-08-01T05:51:29;101226.88;;;20.68;67.12
22333;BME280;11334;36.986;-121.936;2022-08-01T05:53:55;101228.72;;;20.68;66.76
22333;BME280;11334;36.986;-121.936;2022-08-01T05:56:22;101224.19;;;20.68;66.68
22333;BME280;11334;36.986;-121.936;2022-08-01T05:58:49;101222.09;;;20.70;66.92
22333;BME280;11334;36.986;-121.936;2022-08-01T06:01:17;101232.28;;;20.68;67.05
22333;BME280;11334;36.986;-121.936;2022-08-01T06:03:43;101226.25;;;20.66;67.15
22333;BME280;11334;36.986;-121.936;2022-08-01T06:06:09;101237.22;;;20.65;67.15
22333;BME280;11334;36.986;-121.936;2022-08-01T06:08:36;101228.13;;;20.66;67.21
22333;BME280;11334;36.986;-121.936;2022-08-01T06:11:02;101228.53;;;20.63;67.55
22333;BME280;11334;36.986;-121.936;2022-08-01T06:13:29;101227.06;;;20.60;67.39
22333;BME280;11334;36.986;-121.936;2022-08-01T06:15:55;101228.13;;;20.59;67.41
22333;BME280;11334;36.986;-121.936;2022-08-01T06:18:21;101221.25;;;20.51;67.84
22333;BME280;11334;36.986;-121.936;2022-08-01T06:20:48;101223.31;;;20.55;67.54
22333;BME280;11334;36.986;-121.936;2022-08-01T06:23:14;101225.19;;;20.48;68.16
22333;BME280;11334;36.986;-121.936;2022-08-01T06:25:44;101226.44;;;20.52;67.75
22333;BME280;11334;36.986;-121.936;2022-08-01T06:28:10;101227.28;;;20.40;68.14
22333;BME280;11334;36.986;-121.936;2022-08-01T06:30:36;101224.59;;;20.40;68.12
22333;BME280;11334;36.986;-121.936;2022-08-01T06:33:03;101223.53;;;20.41;68.06
22333;BME280;11334;36.986;-121.936;2022-08-01T06:35:30;101226.47;;;20.39;68.31
22333;BME280;11334;36.986;-121.936;2022-08-01T06:37:57;101223.75;;;20.33;68.87
22333;BME280;11334;36.986;-121.936;2022-08-01T06:40:23;101219.19;;;20.33;68.36
22333;BME280;11334;36.986;-121.936;2022-08-01T06:42:50;101222.94;;;20.39;68.28
22333;BME280;11334;36.986;-121.936;2022-08-01T06:45:17;101224.78;;;20.38;68.28
22333;BME280;11334;36.986;-121.936;2022-08-01T06:47:45;101227.06;;;20.35;68.67
22333;BME280;11334;36.986;-121.936;2022-08-01T06:50:12;101218.38;;;20.33;68.47
22333;BME280;11334;36.986;-121.936;2022-08-01T06:52:41;101223.34;;;20.29;68.85
22333;BME280;11334;36.986;-121.936;2022-08-01T06:55:07;101213.59;;;20.35;68.85
22333;BME280;11334;36.986;-121.936;2022-08-01T06:57:34;101205.53;;;20.28;68.87
22333;BME280;11334;36.986;-121.936;2022-08-01T07:00:07;101208.84;;;20.30;68.92
22333;BME280;11334;36.986;-121.936;2022-08-01T07:02:36;101208.63;;;20.26;69.28
22333;BME280;11334;36.986;-121.936;2022-08-01T07:05:03;101202.63;;;20.30;69.03
22333;BME280;11334;36.986;-121.936;2022-08-01T07:07:30;101209.47;;;20.26;69.22
22333;BME280;11334;36.986;-121.936;2022-08-01T07:09:56;101202.22;;;20.27;69.10
22333;BME280;11334;36.986;-121.936;2022-08-01T07:12:23;101207.38;;;20.28;69.40
22333;BME280;11334;36.986;-121.936;2022-08-01T07:14:49;101206.97;;;20.31;69.02
22333;BME280;11334;36.986;-121.936;2022-08-01T07:17:15;101206.38;;;20.29;69.36
22333;BME280;11334;36.986;-121.936;2022-08-01T07:19:41;101201.81;;;20.23;69.50
22333;BME280;11334;36.986;-121.936;2022-08-01T07:22:07;101204.06;;;20.26;69.35
22333;BME280;11334;36.986;-121.936;2022-08-01T07:24:34;101203.47;;;20.24;69.28
22333;BME280;11334;36.986;-121.936;2022-08-01T07:27:00;101200.78;;;20.24;69.57
22333;BME280;11334;36.986;-121.936;2022-08-01T07:29:26;101203.47;;;20.24;69.17
22333;BME280;11334;36.986;-121.936;2022-08-01T07:31:54;101203.25;;;20.26;69.16
22333;BME280;11334;36.986;-121.936;2022-08-01T07:34:21;101204.72;;;20.22;69.27
22333;BME280;11334;36.986;-121.936;2022-08-01T07:36:48;101205.53;;;20.22;69.52
22333;BME280;11334;36.986;-121.936;2022-08-01T07:39:14;101207.78;;;20.19;69.46
22333;BME280;11334;36.986;-121.936;2022-08-01T07:41:41;101202.63;;;20.17;69.58
22333;BME280;11334;36.986;-121.936;2022-08-01T07:44:07;101206.38;;;20.16;69.57
22333;BME280;11334;36.986;-121.936;2022-08-01T07:46:33;101207.81;;;20.12;69.57
22333;BME280;11334;36.986;-121.936;2022-08-01T07:48:59;101205.13;;;20.12;69.84
22333;BME280;11334;36.986;-121.936;2022-08-01T07:51:25;101202.66;;;20.04;69.89
22333;BME280;11334;36.986;-121.936;2022-08-01T07:53:52;101201.41;;;20.07;69.83
22333;BME280;11334;36.986;-121.936;2022-08-01T07:56:18;101207.59;;;20.07;69.75
22333;BME280;11334;36.986;-121.936;2022-08-01T07:58:44;101203.66;;;20.03;70.00
22333;BME280;11334;36.986;-121.936;2022-08-01T08:01:12;101199.53;;;20.01;69.79
22333;BME280;11334;36.986;-121.936;2022-08-01T08:03:38;101196.00;;;20.00;69.75
22333;BME280;11334;36.986;-121.936;2022-08-01T08:06:05;101193.94;;;20.02;69.86
22333;BME280;11334;36.986;-121.936;2022-08-01T08:08:31;101186.72;;;19.96;69.96
22333;BME280;11334;36.986;-121.936;2022-08-01T08:10:57;101191.47;;;19.95;70.43
22333;BME280;11334;36.986;-121.936;2022-08-01T08:13:23;101190.00;;;19.98;69.95
22333;BME280;11334;36.986;-121.936;2022-08-01T08:15:49;101187.72;;;19.95;70.00
22333;BME280;11334;36.986;-121.936;2022-08-01T08:18:16;101187.72;;;19.95;70.13
22333;BME280;11334;36.986;-121.936;2022-08-01T08:20:42;101177.78;;;19.96;70.12
22333;BME280;11334;36.986;-121.936;2022-08-01T08:23:09;101172.63;;;19.95;70.14
22333;BME280;11334;36.986;-121.936;2022-08-01T08:25:53;101171.59;;;19.89;70.22
22333;BME280;11334;36.986;-121.936;2022-08-01T08:28:20;101178.00;;;19.95;70.41
22333;BME280;11334;36.986;-121.936;2022-08-01T08:30:46;101168.50;;;19.92;70.49
22333;BME280;11334;36.986;-121.936;2022-08-01T08:33:12;101162.25;;;19.98;70.39
22333;BME280;11334;36.986;-121.936;2022-08-01T08:35:41;101173.84;;;19.98;70.01
22333;BME280;11334;36.986;-121.936;2022-08-01T08:38:08;101165.59;;;19.87;70.71
22333;BME280;11334;36.986;-121.936;2022-08-01T08:40:35;101175.53;;;19.87;70.70
22333;BME280;11334;36.986;-121.936;2022-08-01T08:43:04;101171.78;;;19.88;70.93
22333;BME280;11334;36.986;-121.936;2022-08-01T08:45:32;101169.72;;;19.83;70.84
22333;BME280;11334;36.986;-121.936;2022-08-01T08:47:58;101175.72;;;19.85;70.63
22333;BME280;11334;36.986;-121.936;2022-08-01T08:50:28;101173.44;;;19.82;71.07
22333;BME280;11334;36.986;-121.936;2022-08-01T08:52:54;101169.28;;;19.86;70.74
22333;BME280;11334;36.986;-121.936;2022-08-01T08:55:22;101162.69;;;19.82;70.66
22333;BME280;11334;36.986;-121.936;2022-08-01T08:57:50;101165.16;;;19.84;70.97
22333;BME280;11334;36.986;-121.936;2022-08-01T09:00:18;101163.28;;;19.78;71.14
22333;BME280;11334;36.986;-121.936;2022-08-01T09:02:46;101164.34;;;19.77;70.97
22333;BME280;11334;36.986;-121.936;2022-08-01T09:05:13;101163.47;;;19.76;70.79
22333;BME280;11334;36.986;-121.936;2022-08-01T09:07:39;101154.59;;;19.76;71.14
22333;BME280;11334;36.986;-121.936;2022-08-01T09:10:07;101163.88;;;19.73;71.19
22333;BME280;11334;36.986;-121.936;2022-08-01T09:12:37;101168.22;;;19.74;70.99
22333;BME280;11334;36.986;-121.936;2022-08-01T09:15:03;101168.22;;;19.74;71.09
22333;BME280;11334;36.986;-121.936;2022-08-01T09:17:40;101170.53;;;19.77;70.97
22333;BME280;11334;36.986;-121.936;2022-08-01T09:20:07;101169.47;;;19.72;71.20
22333;BME280;11334;36.986;-121.936;2022-08-01T09:22:35;101171.53;;;19.70;71.22
22333;BME280;11334;36.986;-121.936;2022-08-01T09:25:07;101162.19;;;19.66;71.21
22333;BME280;11334;36.986;-121.936;2022-08-01T09:27:35;101164.47;;;19.63;71.33
22333;BME280;11334;36.986;-121.936;2022-08-01T09:30:11;101164.47;;;19.56;71.59
22333;BME280;11334;36.986;-121.936;2022-08-01T09:32:59;101156.59;;;19.61;71.39
22333;BME280;11334;36.986;-121.936;2022-08-01T09:35:35;101160.13;;;19.55;71.47
22333;BME280;11334;36.986;-121.936;2022-08-01T09:38:23;101164.03;;;19.59;71.83
22333;BME280;11334;36.986;-121.936;2022-08-01T09:40:57;101172.75;;;19.61;71.43
22333;BME280;11334;36.986;-121.936;2022-08-01T09:43:26;101168.41;;;19.60;71.64
22333;BME280;11334;36.986;-121.936;2022-08-01T09:45:53;101157.00;;;19.52;71.98
22333;BME280;11334;36.986;-121.936;2022-08-01T09:48:21;101158.44;;;19.54;71.82
22333;BME280;11334;36.986;-121.936;2022-08-01T09:50:49;101152.06;;;19.55;71.62
22333;BME280;11334;36.986;-121.936;2022-08-01T09:53:16;101150.38;;;19.54;71.71
22333;BME280;11334;36.986;-121.936;2022-08-01T09:55:43;101148.75;;;19.60;71.42
22333;BME280;11334;36.986;-121.936;2022-08-01T09:58:10;101155.38;;;19.63;71.18
22333;BME280;11334;36.986;-121.936;2022-08-01T10:00:38;101155.81;;;19.67;70.84
22333;BME280;11334;36.986;-121.936;2022-08-01T10:03:25;101158.69;;;19.65;71.28
22333;BME280;11334;36.986;-121.936;2022-08-01T10:05:53;101155.19;;;19.65;71.20
22333;BME280;11334;36.986;-121.936;2022-08-01T10:08:19;101150.81;;;19.58;71.03
22333;BME280;11334;36.986;-121.936;2022-08-01T10:11:11;101152.69;;;19.57;71.33
22333;BME280;11334;36.986;-121.936;2022-08-01T10:13:39;101153.28;;;19.59;71.42
22333;BME280;11334;36.986;-121.936;2022-08-01T10:16:05;101152.47;;;19.59;71.28
22333;BME280;11334;36.986;-121.936;2022-08-01T10:18:33;101157.25;;;19.63;71.10
22333;BME280;11334;36.986;-121.936;2022-08-01T10:21:03;101154.97;;;19.60;71.12
22333;BME280;11334;36.986;-121.936;2022-08-01T10:23:37;101146.28;;;19.58;71.34
22333;BME280;11334;36.986;-121.936;2022-08-01T10:26:05;101159.09;;;19.56;71.58
22333;BME280;11334;36.986;-121.936;2022-08-01T10:28:35;101161.78;;;19.56;71.43
22333;BME280;11334;36.986;-121.936;2022-08-01T10:31:07;101161.34;;;19.59;71.81
22333;BME280;11334;36.986;-121.936;2022-08-01T10:33:34;101164.69;;;19.61;71.63
22333;BME280;11334;36.986;-121.936;2022-08-01T10:36:02;101165.09;;;19.58;71.64
22333;BME280;11334;36.986;-121.936;2022-08-01T10:38:30;101167.59;;;19.60;71.44
22333;BME280;11334;36.986;-121.936;2022-08-01T10:40:57;101180.59;;;19.56;71.62
22333;BME280;11334;36.986;-121.936;2022-08-01T10:43:25;101171.09;;;19.60;71.76
22333;BME280;11334;36.986;-121.936;2022-08-01T10:45:51;101169.63;;;19.64;71.75
22333;BME280;11334;36.986;-121.936;2022-08-01T10:48:22;101172.97;;;19.66;72.04
22333;BME280;11334;36.986;-121.936;2022-08-01T10:50:52;101175.03;;;19.70;71.50
22333;BME280;11334;36.986;-121.936;2022-08-01T10:53:22;101181.66;;;19.68;71.71
22333;BME280;11334;36.986;-121.936;2022-08-01T10:58:26;101188.09;;;19.67;72.19
22333;BME280;11334;36.986;-121.936;2022-08-01T11:04:10;101191.59;;;19.67;72.64
22333;BME280;11334;36.986;-121.936;2022-08-01T11:06:44;101193.47;;;19.67;72.48
22333;BME280;11334;36.986;-121.936;2022-08-01T11:09:18;101202.13;;;19.69;72.60
22333;BME280;11334;36.986;-121.936;2022-08-01T11:12:01;101200.28;;;19.69;72.41
22333;BME280;11334;36.986;-121.936;2022-08-01T11:14:29;101181.03;;;19.66;72.36
22333;BME280;11334;36.986;-121.936;2022-08-01T11:16:56;101183.94;;;19.64;72.47
22333;BME280;11334;36.986;-121.936;2022-08-01T11:19:22;101188.50;;;19.70;72.53
22333;BME280;11334;36.986;-121.936;2022-08-01T11:29:42;101195.53;;;19.65;72.67
22333;BME280;11334;36.986;-121.936;2022-08-01T11:32:53;101184.31;;;19.62;72.49
22333;BME280;11334;36.986;-121.936;2022-08-01T11:35:20;101187.22;;;19.60;72.69
22333;BME280;11334;36.986;-121.936;2022-08-01T11:37:49;101182.88;;;19.59;72.28
22333;BME280;11334;36.986;-121.936;2022-08-01T11:40:22;101191.34;;;19.56;72.79
22333;BME280;11334;36.986;-121.936;2022-08-01T11:42:50;101205.59;;;19.57;72.67
22333;BME280;11334;36.986;-121.936;2022-08-01T11:45:16;101199.00;;;19.53;72.94
22333;BME280;11334;36.986;-121.936;2022-08-01T11:47:45;101194.44;;;19.53;73.03
22333;BME280;11334;36.986;-121.936;2022-08-01T11:50:44;101196.72;;;19.50;73.31
22333;BME280;11334;36.986;-121.936;2022-08-01T11:53:10;101203.53;;;19.46;73.35
22333;BME280;11334;36.986;-121.936;2022-08-01T11:55:36;101196.28;;;19.46;73.55
22333;BME280;11334;36.986;-121.936;2022-08-01T11:58:04;101213.03;;;19.48;73.29
22333;BME280;11334;36.986;-121.936;2022-08-01T12:00:32;101205.16;;;19.47;73.63
22333;BME280;11334;36.986;-121.936;2022-08-01T12:03:02;101210.34;;;19.48;73.38
22333;BME280;11334;36.986;-121.936;2022-08-01T12:05:29;101210.75;;;19.52;73.32
22333;BME280;11334;36.986;-121.936;2022-08-01T12:07:57;101220.69;;;19.51;73.33
22333;BME280;11334;36.986;-121.936;2022-08-01T12:10:26;101223.19;;;19.53;73.39
22333;BME280;11334;36.986;-121.936;2022-08-01T12:12:58;101215.72;;;19.48;73.43
22333;BME280;11334;36.986;-121.936;2022-08-01T12:15:30;101221.34;;;19.53;73.41
22333;BME280;11334;36.986;-121.936;2022-08-01T12:17:58;101228.13;;;19.49;73.38
22333;BME280;11334;36.986;-121.936;2022-08-01T12:20:28;101223.38;;;19.51;73.33
22333;BME280;11334;36.986;-121.936;2022-08-01T12:22:56;101213.22;;;19.47;73.49
22333;BME280;11334;36.986;-121.936;2022-08-01T12:25:22;101211.63;;;19.52;73.55
22333;BME280;11334;36.986;-121.936;2022-08-01T12:27:49;101199.78;;;19.47;73.37
22333;BME280;11334;36.986;-121.936;2022-08-01T12:30:17;101206.22;;;19.46;73.31
22333;BME280;11334;36.986;-121.936;2022-08-01T12:32:46;101199.78;;;19.47;73.35
22333;BME280;11334;36.986;-121.936;2022-08-01T12:35:14;101201.47;;;19.48;73.47
22333;BME280;11334;36.986;-121.936;2022-08-01T12:37:43;101205.38;;;19.52;73.14
22333;BME280;11334;36.986;-121.936;2022-08-01T12:40:19;101203.75;;;19.51;72.96
22333;BME280;11334;36.986;-121.936;2022-08-01T12:42:48;101204.56;;;19.51;73.13
22333;BME280;11334;36.986;-121.936;2022-08-01T12:45:20;101207.66;;;19.48;73.27
22333;BME280;11334;36.986;-121.936;2022-08-01T12:47:47;101207.47;;;19.50;72.98
22333;BME280;11334;36.986;-121.936;2022-08-01T12:50:16;101213.25;;;19.53;72.54
22333;BME280;11334;36.986;-121.936;2022-08-01T12:52:43;101204.97;;;19.48;72.93
22333;BME280;11334;36.986;-121.936;2022-08-01T12:57:41;101200.22;;;19.50;73.00